createdAt,value
2022-12-27T00:00:12.156Z,2.9
2022-12-27T00:03:12.487Z,2.9
2022-12-27T00:06:12.106Z,3
2022-12-27T00:09:12.131Z,3
2022-12-27T00:12:12.082Z,3.1
2022-12-27T00:15:12.045Z,3.1
2022-12-27T00:18:12.059Z,3.1
2022-12-27T00:21:12.188Z,3
2022-12-27T00:24:12.189Z,3
2022-12-27T00:27:12.105Z,2.9
2022-12-27T00:30:12.106Z,2.9
2022-12-27T00:33:12.153Z,2.7
2022-12-27T00:36:12.140Z,2.7
2022-12-27T00:39:12.114Z,2.7
2022-12-27T00:42:12.133Z,2.6
2022-12-27T00:45:12.141Z,2.5
2022-12-27T00:48:12.057Z,2.4
2022-12-27T00:51:12.189Z,2.5
2022-12-27T00:54:12.042Z,2.4
2022-12-27T00:57:12.162Z,2.4
2022-12-27T01:00:21.727Z,2.4
2022-12-27T01:03:13.262Z,2.2
2022-12-27T01:06:12.126Z,2.2
2022-12-27T01:09:12.130Z,2.2
2022-12-27T01:12:12.170Z,2.2
2022-12-27T01:15:12.174Z,2.2
2022-12-27T01:18:12.127Z,2.2
2022-12-27T01:21:12.159Z,2.1
2022-12-27T01:24:12.063Z,2.1
2022-12-27T01:27:12.279Z,2.1
2022-12-27T01:30:12.270Z,2.1
2022-12-27T01:33:12.288Z,2.2
2022-12-27T01:36:12.110Z,2.4
2022-12-27T01:39:12.144Z,2.5
2022-12-27T01:42:12.252Z,2.6
2022-12-27T01:45:12.094Z,2.9
2022-12-27T01:48:12.142Z,3
2022-12-27T01:51:12.146Z,3.2
2022-12-27T01:54:12.145Z,3.2
2022-12-27T01:57:12.212Z,3.2
2022-12-27T02:00:12.155Z,3.4
2022-12-27T02:03:12.594Z,3.2
2022-12-27T02:06:12.172Z,3
2022-12-27T02:09:12.114Z,2.9
2022-12-27T02:12:12.071Z,2.6
2022-12-27T02:15:12.083Z,2.5
2022-12-27T02:18:12.107Z,2.4
2022-12-27T02:21:12.113Z,2.2
2022-12-27T02:24:14.696Z,2.2
2022-12-27T02:27:12.058Z,2.1
2022-12-27T02:30:12.112Z,2.1
2022-12-27T02:33:12.683Z,2.1
2022-12-27T02:36:12.072Z,2.1
2022-12-27T02:39:12.235Z,2
2022-12-27T02:42:12.059Z,2.1
2022-12-27T02:45:12.113Z,2
2022-12-27T02:48:12.093Z,2
2022-12-27T02:51:12.256Z,2
2022-12-27T02:54:12.175Z,2.1
2022-12-27T02:57:12.152Z,2
2022-12-27T03:00:12.230Z,2.1
2022-12-27T03:03:12.492Z,2.1
2022-12-27T03:06:12.080Z,2.1
2022-12-27T03:09:12.244Z,2.2
2022-12-27T03:12:12.429Z,2.2
2022-12-27T03:15:12.302Z,2.2
2022-12-27T03:18:12.287Z,2.2
2022-12-27T03:21:12.265Z,2.2
2022-12-27T03:24:12.399Z,2.2
2022-12-27T03:27:12.119Z,2.2
2022-12-27T03:30:12.088Z,2.2
2022-12-27T03:33:12.115Z,2.1
2022-12-27T03:36:12.103Z,2.1
2022-12-27T03:39:12.127Z,2.1
2022-12-27T03:42:12.067Z,2.1
2022-12-27T03:45:12.206Z,2.1
2022-12-27T03:48:12.060Z,2.1
2022-12-27T03:51:12.428Z,2.1
2022-12-27T03:54:12.163Z,2
2022-12-27T03:57:12.144Z,2
2022-12-27T04:00:13.125Z,2
2022-12-27T04:03:12.614Z,1.9
2022-12-27T04:06:12.152Z,1.9
2022-12-27T04:09:12.147Z,1.8
2022-12-27T04:12:12.092Z,1.8
2022-12-27T04:15:12.079Z,1.8
2022-12-27T04:18:12.106Z,1.8
2022-12-27T04:21:12.067Z,1.8
2022-12-27T04:24:12.069Z,1.8
2022-12-27T04:27:12.142Z,1.8
2022-12-27T04:30:12.405Z,1.8
2022-12-27T04:33:12.181Z,1.8
2022-12-27T04:36:17.809Z,1.8
2022-12-27T04:39:12.134Z,1.8
2022-12-27T04:42:12.193Z,1.9
2022-12-27T04:45:20.029Z,1.9
2022-12-27T04:48:12.050Z,1.9
2022-12-27T04:51:12.188Z,1.8
2022-12-27T04:54:12.083Z,1.8
2022-12-27T04:57:12.114Z,1.9
2022-12-27T05:00:12.384Z,1.9
2022-12-27T05:03:13.143Z,1.9
2022-12-27T05:06:12.114Z,1.9
2022-12-27T05:09:12.134Z,1.9
2022-12-27T05:12:12.078Z,2
2022-12-27T05:15:12.070Z,2.2
2022-12-27T05:18:12.075Z,2.2
2022-12-27T05:21:12.206Z,2.2
2022-12-27T05:24:17.107Z,2.5
2022-12-27T05:27:12.143Z,2.9
2022-12-27T05:30:12.090Z,3.1
2022-12-27T05:33:12.193Z,3.2
2022-12-27T05:36:12.082Z,3.5
2022-12-27T05:39:12.199Z,3.6
2022-12-27T05:51:12.814Z,4.1
2022-12-27T05:54:12.249Z,4.2
2022-12-27T05:57:12.275Z,4.2
2022-12-27T06:00:12.275Z,4.4
2022-12-27T06:03:13.564Z,4.5
2022-12-27T06:06:14.620Z,4.5
2022-12-27T06:09:12.275Z,4.5
2022-12-27T06:12:12.153Z,4.6
2022-12-27T06:15:12.241Z,4.6
2022-12-27T06:18:12.426Z,4.7
2022-12-27T06:21:12.178Z,4.7
2022-12-27T06:24:12.224Z,4.9
2022-12-27T06:27:12.311Z,4.9
2022-12-27T06:30:12.212Z,5
2022-12-27T06:33:12.231Z,5
2022-12-27T06:36:12.293Z,5
2022-12-27T06:39:12.170Z,5.1
2022-12-27T06:42:12.182Z,5.1
2022-12-27T06:45:12.352Z,5.1
2022-12-27T06:48:12.229Z,5.2
2022-12-27T06:51:12.304Z,5.2
2022-12-27T06:54:12.280Z,5.2
2022-12-27T06:57:12.296Z,5.2
2022-12-27T07:00:12.268Z,5.2
2022-12-27T07:03:12.647Z,5.2
2022-12-27T07:06:12.291Z,5.2
2022-12-27T07:09:12.218Z,5.4
2022-12-27T07:12:12.204Z,5.4
2022-12-27T07:15:12.320Z,5.4
2022-12-27T07:18:12.203Z,5.4
2022-12-27T07:21:12.244Z,5.4
2022-12-27T07:24:12.312Z,5.4
2022-12-27T07:27:12.320Z,5.4
2022-12-27T07:30:12.436Z,5.4
2022-12-27T07:33:12.362Z,5.5
2022-12-27T07:36:12.296Z,5.5
2022-12-27T07:39:12.316Z,5.5
2022-12-27T07:42:19.710Z,5.6
2022-12-27T07:45:12.433Z,5.6
2022-12-27T07:48:12.311Z,5.6
2022-12-27T07:51:12.410Z,5.6
2022-12-27T07:54:12.326Z,5.7
2022-12-27T07:57:12.389Z,5.7
2022-12-27T08:00:12.700Z,5.7
2022-12-27T08:03:12.750Z,5.7
2022-12-27T08:06:12.311Z,5.7
2022-12-27T08:09:12.353Z,5.9
2022-12-27T08:12:13.522Z,5.9
2022-12-27T08:15:12.492Z,5.9
2022-12-27T08:18:12.368Z,6
2022-12-27T08:21:12.345Z,6.1
2022-12-27T08:24:12.364Z,6.2
2022-12-27T08:27:12.353Z,6.1
2022-12-27T08:30:12.281Z,6.1
2022-12-27T08:33:12.243Z,6.1
2022-12-27T08:39:12.359Z,6.4
2022-12-27T08:42:12.244Z,6.4
2022-12-27T08:45:12.919Z,6.4
2022-12-27T08:48:12.915Z,6.6
2022-12-27T08:51:41.648Z,6.7
2022-12-27T08:54:12.296Z,7
2022-12-27T08:57:12.290Z,7
2022-12-27T09:00:12.451Z,7.1
2022-12-27T09:03:12.789Z,7
2022-12-27T09:06:12.318Z,7
2022-12-27T09:09:12.477Z,7.2
2022-12-27T09:12:20.134Z,7.4
2022-12-27T09:15:12.269Z,7.6
2022-12-27T09:18:12.262Z,7.7
2022-12-27T09:21:12.367Z,7.7
2022-12-27T09:24:12.287Z,7.7
2022-12-27T09:27:12.318Z,7.7
2022-12-27T09:30:12.545Z,7.6
2022-12-27T09:33:12.335Z,7.5
2022-12-27T09:36:12.315Z,7.2
2022-12-27T09:39:12.347Z,7.1
2022-12-27T09:45:12.410Z,7.2
2022-12-27T09:48:12.354Z,8.5
2022-12-27T09:51:12.277Z,10.1
2022-12-27T09:54:12.292Z,9.9
2022-12-27T09:57:31.679Z,9.6
2022-12-27T10:00:12.525Z,12.4
2022-12-27T10:03:12.493Z,12.2
2022-12-27T10:06:12.687Z,13.4
2022-12-27T10:09:12.260Z,12.2
2022-12-27T10:12:12.366Z,11.9
2022-12-27T10:15:12.245Z,12.2
2022-12-27T10:18:12.268Z,11.8
2022-12-27T10:21:12.372Z,11.6
2022-12-27T10:24:12.367Z,11.4
2022-12-27T10:27:12.238Z,11
2022-12-27T10:30:12.388Z,10.8
2022-12-27T10:33:12.345Z,12.5
2022-12-27T10:36:12.376Z,12.9
2022-12-27T10:39:12.387Z,13.6
2022-12-27T10:42:12.250Z,14.4
2022-12-27T10:45:12.530Z,14
2022-12-27T10:48:12.307Z,13.4
2022-12-27T10:51:12.395Z,13
2022-12-27T10:54:12.332Z,12
2022-12-27T10:57:12.321Z,10.9
2022-12-27T11:00:12.358Z,10.1
2022-12-27T11:03:12.834Z,9.6
2022-12-27T11:06:12.350Z,9.6
2022-12-27T11:09:12.732Z,9.6
2022-12-27T11:12:12.279Z,9.5
2022-12-27T11:15:12.266Z,9.5
2022-12-27T11:18:12.466Z,10.4
2022-12-27T11:21:28.235Z,12
2022-12-27T11:24:12.242Z,14.3
2022-12-27T11:27:12.339Z,15.9
2022-12-27T11:30:12.348Z,16.5
2022-12-27T11:33:12.325Z,18.4
2022-12-27T11:36:12.334Z,19.6
2022-12-27T11:39:12.339Z,19.5
2022-12-27T11:42:12.247Z,16.9
2022-12-27T11:45:12.360Z,15.5
2022-12-27T11:48:12.277Z,14.3
2022-12-27T11:51:12.137Z,13.5
2022-12-27T11:54:12.332Z,13
2022-12-27T11:57:12.306Z,13.3
2022-12-27T12:00:12.364Z,13.4
2022-12-27T12:03:13.026Z,12.8
2022-12-27T12:06:12.405Z,12.5
2022-12-27T12:09:12.378Z,12.1
2022-12-27T12:12:12.455Z,11.8
2022-12-27T12:15:12.291Z,11.4
2022-12-27T12:18:12.455Z,11
2022-12-27T12:21:12.419Z,10.8
2022-12-27T12:24:12.486Z,10.3
2022-12-27T12:27:12.220Z,10
2022-12-27T12:30:12.523Z,9.6
2022-12-27T12:33:12.875Z,9.5
2022-12-27T12:36:12.381Z,9.4
2022-12-27T12:39:12.261Z,9.5
2022-12-27T12:42:12.412Z,9.5
2022-12-27T12:45:12.495Z,9.3
2022-12-27T12:48:12.484Z,9
2022-12-27T12:51:12.261Z,8.8
2022-12-27T12:54:12.277Z,9
2022-12-27T13:00:12.778Z,9.1
2022-12-27T13:03:13.638Z,9
2022-12-27T13:06:12.438Z,9
2022-12-27T13:09:12.447Z,8.8
2022-12-27T13:12:12.547Z,8.6
2022-12-27T13:15:12.553Z,8.3
2022-12-27T13:18:12.346Z,8.1
2022-12-27T13:21:12.490Z,8
2022-12-27T13:24:12.362Z,7.9
2022-12-27T13:27:12.441Z,7.9
2022-12-27T13:30:18.802Z,7.9
2022-12-27T13:33:12.352Z,8
2022-12-27T13:36:12.420Z,8
2022-12-27T13:39:12.400Z,8.3
2022-12-27T13:42:12.465Z,8.4
2022-12-27T13:45:12.553Z,8.4
2022-12-27T13:48:12.425Z,8.6
2022-12-27T13:51:12.399Z,9
2022-12-27T13:54:12.461Z,9.1
2022-12-27T13:57:12.441Z,9.1
2022-12-27T14:03:12.890Z,9.3
2022-12-27T14:06:12.312Z,9.1
2022-12-27T14:09:12.521Z,9
2022-12-27T14:12:12.427Z,8.9
2022-12-27T14:18:12.465Z,8.4
2022-12-27T14:21:12.450Z,8.1
2022-12-27T14:24:12.392Z,7.9
2022-12-27T14:27:12.507Z,7.6
2022-12-27T14:30:12.732Z,7.4
2022-12-27T14:33:12.498Z,7.1
2022-12-27T14:36:12.460Z,7
2022-12-27T14:39:12.370Z,6.7
2022-12-27T14:42:12.496Z,6.5
2022-12-27T14:45:12.374Z,6.4
2022-12-27T14:48:12.357Z,6.1
2022-12-27T14:54:12.367Z,5.6
2022-12-27T14:57:12.381Z,5.4
2022-12-27T15:00:12.602Z,5.1
2022-12-27T15:03:13.161Z,5
2022-12-27T15:06:12.827Z,4.7
2022-12-27T15:09:18.741Z,4.5
2022-12-27T15:12:12.459Z,4.4
2022-12-27T15:15:12.618Z,4.1
2022-12-27T15:18:12.390Z,4
2022-12-27T15:21:12.246Z,3.9
2022-12-27T15:24:12.422Z,3.7
2022-12-27T15:27:19.782Z,3.5
2022-12-27T15:30:12.554Z,3.4
2022-12-27T15:33:12.293Z,3.2
2022-12-27T15:36:12.315Z,3.1
2022-12-27T15:39:12.288Z,3
2022-12-27T15:42:12.284Z,2.9
2022-12-27T15:45:12.425Z,2.9
2022-12-27T15:48:12.270Z,2.9
2022-12-27T15:51:12.327Z,3
2022-12-27T15:54:12.340Z,2.9
2022-12-27T16:00:12.586Z,2.9
2022-12-27T16:03:13.736Z,2.9
2022-12-27T16:06:12.251Z,2.9
2022-12-27T16:09:12.167Z,2.7
2022-12-27T16:12:12.294Z,2.9
2022-12-27T16:15:12.161Z,2.7
2022-12-27T16:18:12.195Z,2.7
2022-12-27T16:21:12.139Z,2.9
2022-12-27T16:24:12.247Z,2.9
2022-12-27T16:27:12.278Z,2.9
2022-12-27T16:30:12.281Z,2.9
2022-12-27T16:33:12.232Z,3
2022-12-27T16:36:12.441Z,3.1
2022-12-27T16:39:12.191Z,3.2
2022-12-27T16:42:12.280Z,3.5
2022-12-27T16:45:12.191Z,3.6
2022-12-27T16:48:12.252Z,3.7
2022-12-27T16:51:12.232Z,3.9
2022-12-27T16:54:12.191Z,3.9
2022-12-27T16:57:15.605Z,4
2022-12-27T17:00:12.303Z,4
2022-12-27T17:03:16.192Z,3.9
2022-12-27T17:09:12.610Z,3.7
2022-12-27T17:12:12.293Z,3.7
2022-12-27T17:30:14.471Z,3.6
2022-12-27T17:33:13.432Z,3.6
2022-12-27T17:36:12.982Z,3.7
2022-12-27T17:39:14.239Z,3.7
2022-12-27T17:42:14.282Z,3.9
2022-12-27T17:45:12.853Z,3.9
2022-12-27T17:48:29.653Z,4
2022-12-27T17:51:14.178Z,4
2022-12-27T17:54:11.964Z,4
2022-12-27T17:57:11.819Z,4.1
2022-12-27T18:00:12.014Z,4.1
2022-12-27T18:03:12.430Z,4.1
2022-12-27T18:06:11.861Z,4.2
2022-12-27T18:09:11.856Z,4.2
2022-12-27T18:12:11.901Z,4.2
2022-12-27T18:15:11.898Z,4.4
2022-12-27T18:18:12.355Z,4.2
2022-12-27T18:21:12.062Z,4.4
2022-12-27T18:24:11.937Z,4.4
2022-12-27T18:27:11.879Z,4.4
2022-12-27T18:30:12.739Z,4.4
2022-12-27T18:33:11.942Z,4.4
2022-12-27T18:36:11.952Z,4.4
2022-12-27T18:39:11.911Z,4.4
2022-12-27T18:42:11.867Z,4.4
2022-12-27T18:45:11.924Z,4.4
2022-12-27T18:48:11.925Z,4.4
2022-12-27T18:51:11.942Z,4.5
2022-12-27T18:54:11.888Z,4.6
2022-12-27T18:57:11.951Z,4.6
2022-12-27T19:00:12.009Z,4.7
2022-12-27T19:03:12.211Z,4.7
2022-12-27T19:06:11.964Z,4.7
2022-12-27T19:09:11.859Z,4.7
2022-12-27T19:12:11.928Z,4.7
2022-12-27T19:15:11.944Z,4.9
2022-12-27T19:18:11.868Z,4.9
2022-12-27T19:21:11.828Z,5
2022-12-27T19:24:11.879Z,5
2022-12-27T19:27:11.848Z,5.1
2022-12-27T19:30:11.940Z,5.2
2022-12-27T19:33:11.894Z,5.4
2022-12-27T19:36:12.247Z,5.5
2022-12-27T19:39:11.954Z,5.6
2022-12-27T19:42:12.870Z,5.7
2022-12-27T19:45:11.829Z,5.9
2022-12-27T19:48:11.879Z,6
2022-12-27T19:51:11.898Z,6
2022-12-27T19:54:11.908Z,6.1
2022-12-27T19:57:11.872Z,6.1
2022-12-27T20:00:23.365Z,6.1
2022-12-27T20:03:12.403Z,6.2
2022-12-27T20:06:37.169Z,6.2
2022-12-27T20:09:11.864Z,6.2
2022-12-27T20:12:11.939Z,6.2
2022-12-27T20:15:11.991Z,6.2
2022-12-27T20:18:11.888Z,6.2
2022-12-27T20:21:11.927Z,6.2
2022-12-27T20:24:11.883Z,6.2
2022-12-27T20:27:11.937Z,6.2
2022-12-27T20:30:12.002Z,6.2
2022-12-27T20:33:11.920Z,6.2
2022-12-27T20:36:11.941Z,6.4
2022-12-27T20:39:12.155Z,6.4
2022-12-27T20:42:11.836Z,6.4
2022-12-27T20:45:11.835Z,6.4
2022-12-27T20:48:11.932Z,6.2
2022-12-27T20:51:11.880Z,6.2
2022-12-27T20:54:11.967Z,6.2
2022-12-27T20:57:11.875Z,6.2
2022-12-27T21:00:11.927Z,6.2
2022-12-27T21:03:12.879Z,6.2
2022-12-27T21:06:11.864Z,6.2
2022-12-27T21:09:12.003Z,6.2
2022-12-27T21:12:11.789Z,6.2
2022-12-27T21:15:11.966Z,6.2
2022-12-27T21:18:11.904Z,6.2
2022-12-27T21:21:11.894Z,6.2
2022-12-27T21:24:11.916Z,6.2
2022-12-27T21:27:11.920Z,6.2
2022-12-27T21:30:12.285Z,6.1
2022-12-27T21:33:11.844Z,6.1
2022-12-27T21:36:11.881Z,6.1
2022-12-27T21:39:11.969Z,6.1
2022-12-27T21:42:11.943Z,6.1
2022-12-27T21:45:12.023Z,6.1
2022-12-27T21:48:11.814Z,6
2022-12-27T21:51:11.971Z,6
2022-12-27T21:54:12.015Z,5.9
2022-12-27T21:57:11.834Z,5.9
2022-12-27T22:00:11.953Z,5.7
2022-12-27T22:03:14.182Z,5.7
2022-12-27T22:06:11.855Z,5.6
2022-12-27T22:09:12.001Z,5.6
2022-12-27T22:12:11.831Z,5.6
2022-12-27T22:15:11.865Z,5.5
2022-12-27T22:18:11.874Z,5.5
2022-12-27T22:21:11.968Z,5.5
2022-12-27T22:24:11.891Z,5.5
2022-12-27T22:27:12.493Z,5.5
2022-12-27T22:30:11.877Z,5.5
2022-12-27T22:33:11.918Z,5.5
2022-12-27T22:36:11.862Z,5.4
2022-12-27T22:39:13.179Z,5.4
2022-12-27T22:42:12.142Z,5.2
2022-12-27T22:45:11.849Z,5.1
2022-12-27T22:48:11.888Z,5.1
2022-12-27T22:51:11.863Z,5
2022-12-27T22:54:11.909Z,4.9
2022-12-27T22:57:11.869Z,4.7
2022-12-27T23:00:13.624Z,4.7
2022-12-27T23:03:11.844Z,4.5
2022-12-27T23:06:12.045Z,4.4
2022-12-27T23:09:12.017Z,4.4
2022-12-27T23:12:11.919Z,4.2
2022-12-27T23:15:11.900Z,4.1
2022-12-27T23:18:11.908Z,4
2022-12-27T23:21:35.795Z,4
2022-12-27T23:24:11.886Z,4
2022-12-27T23:27:12.493Z,3.9
2022-12-27T23:30:12.029Z,3.9
2022-12-27T23:33:11.877Z,3.9
2022-12-27T23:36:11.944Z,3.7
2022-12-27T23:39:11.846Z,3.7
2022-12-27T23:42:11.865Z,3.7
2022-12-27T23:45:11.833Z,3.7
2022-12-27T23:48:11.895Z,3.7
2022-12-27T23:51:11.869Z,3.9
2022-12-27T23:54:11.856Z,3.9
2022-12-27T23:57:34.083Z,3.9
